sensor_id;sensor_type;location;lat;lon;timestamp;P1;durP1;ratioP1;P2;durP2;ratioP2
4638;SDS011;2332;38.646;-9.154;2023-11-18T00:00:25;114.37;;;40.73;;
4638;SDS011;2332;38.646;-9.154;2023-11-18T00:02:51;92.37;;;36.47;;
4638;SDS011;2332;38.646;-9.154;2023-11-18T00:05:16;77.33;;;36.60;;
4638;SDS011;2332;38.646;-9.154;2023-11-18T00:07:43;87.63;;;36.70;;
4638;SDS011;2332;38.646;-9.154;2023-11-18T00:10:08;75.10;;;33.27;;
4638;SDS011;2332;38.646;-9.154;2023-11-18T00:12:34;70.93;;;33.50;;
4638;SDS011;2332;38.646;-9.154;2023-11-18T00:15:00;61.50;;;31.20;;
4638;SDS011;2332;38.646;-9.154;2023-11-18T00:17:28;56.43;;;28.60;;
4638;SDS011;2332;38.646;-9.154;2023-11-18T00:19:53;52.37;;;28.10;;
4638;SDS011;2332;38.646;-9.154;2023-11-18T00:22:19;51.37;;;28.70;;
4638;SDS011;2332;38.646;-9.154;2023-11-18T00:24:44;55.97;;;29.90;;
4638;SDS011;2332;38.646;-9.154;2023-11-18T00:27:10;61.60;;;30.93;;
4638;SDS011;2332;38.646;-9.154;2023-11-18T00:29:35;65.80;;;34.40;;
4638;SDS011;2332;38.646;-9.154;2023-11-18T00:32:02;68.33;;;33.43;;
4638;SDS011;2332;38.646;-9.154;2023-11-18T00:34:28;83.23;;;33.93;;
4638;SDS011;2332;38.646;-9.154;2023-11-18T00:36:54;100.00;;;34.60;;
4638;SDS011;2332;38.646;-9.154;2023-11-18T00:39:22;162.73;;;34.63;;
4638;SDS011;2332;38.646;-9.154;2023-11-18T00:41:47;302.70;;;32.47;;
4638;SDS011;2332;38.646;-9.154;2023-11-18T00:44:14;233.90;;;30.53;;
4638;SDS011;2332;38.646;-9.154;2023-11-18T00:46:39;267.97;;;29.70;;
4638;SDS011;2332;38.646;-9.154;2023-11-18T00:49:05;83.40;;;24.37;;
4638;SDS011;2332;38.646;-9.154;2023-11-18T00:51:30;64.23;;;24.00;;
4638;SDS011;2332;38.646;-9.154;2023-11-18T00:53:56;51.53;;;24.80;;
4638;SDS011;2332;38.646;-9.154;2023-11-18T00:56:21;162.27;;;25.50;;
4638;SDS011;2332;38.646;-9.154;2023-11-18T00:58:49;75.83;;;26.13;;
4638;SDS011;2332;38.646;-9.154;2023-11-18T01:01:15;75.27;;;25.93;;
4638;SDS011;2332;38.646;-9.154;2023-11-18T01:03:44;258.67;;;30.07;;
4638;SDS011;2332;38.646;-9.154;2023-11-18T01:06:09;540.37;;;44.47;;
4638;SDS011;2332;38.646;-9.154;2023-11-18T01:08:34;217.23;;;31.50;;
4638;SDS011;2332;38.646;-9.154;2023-11-18T01:11:00;123.27;;;27.03;;
4638;SDS011;2332;38.646;-9.154;2023-11-18T01:13:25;182.70;;;31.33;;
4638;SDS011;2332;38.646;-9.154;2023-11-18T01:15:51;73.57;;;27.13;;
4638;SDS011;2332;38.646;-9.154;2023-11-18T01:18:17;164.53;;;28.93;;
4638;SDS011;2332;38.646;-9.154;2023-11-18T01:20:42;134.20;;;27.73;;
4638;SDS011;2332;38.646;-9.154;2023-11-18T01:23:08;75.07;;;28.33;;
4638;SDS011;2332;38.646;-9.154;2023-11-18T01:25:33;123.57;;;29.63;;
4638;SDS011;2332;38.646;-9.154;2023-11-18T01:27:59;198.60;;;31.90;;
4638;SDS011;2332;38.646;-9.154;2023-11-18T01:30:25;69.03;;;27.67;;
4638;SDS011;2332;38.646;-9.154;2023-11-18T01:32:52;239.67;;;30.00;;
4638;SDS011;2332;38.646;-9.154;2023-11-18T01:35:17;270.60;;;33.13;;
4638;SDS011;2332;38.646;-9.154;2023-11-18T01:37:42;237.33;;;33.77;;
4638;SDS011;2332;38.646;-9.154;2023-11-18T01:40:09;157.83;;;30.90;;
4638;SDS011;2332;38.646;-9.154;2023-11-18T01:42:37;200.43;;;32.07;;
4638;SDS011;2332;38.646;-9.154;2023-11-18T01:45:02;180.10;;;31.80;;
4638;SDS011;2332;38.646;-9.154;2023-11-18T01:47:29;95.87;;;27.63;;
4638;SDS011;2332;38.646;-9.154;2023-11-18T01:49:57;78.30;;;28.90;;
4638;SDS011;2332;38.646;-9.154;2023-11-18T01:52:25;117.90;;;27.77;;
4638;SDS011;2332;38.646;-9.154;2023-11-18T01:54:50;167.03;;;29.03;;
4638;SDS011;2332;38.646;-9.154;2023-11-18T01:57:16;338.00;;;35.13;;
4638;SDS011;2332;38.646;-9.154;2023-11-18T01:59:41;198.07;;;27.73;;
4638;SDS011;2332;38.646;-9.154;2023-11-18T02:02:07;152.37;;;26.60;;
4638;SDS011;2332;38.646;-9.154;2023-11-18T02:04:32;165.00;;;25.90;;
4638;SDS011;2332;38.646;-9.154;2023-11-18T02:06:58;110.77;;;26.60;;
4638;SDS011;2332;38.646;-9.154;2023-11-18T02:09:24;298.00;;;30.47;;
4638;SDS011;2332;38.646;-9.154;2023-11-18T02:11:53;162.10;;;29.07;;
4638;SDS011;2332;38.646;-9.154;2023-11-18T02:14:20;219.37;;;28.77;;
4638;SDS011;2332;38.646;-9.154;2023-11-18T02:16:45;168.10;;;30.10;;
4638;SDS011;2332;38.646;-9.154;2023-11-18T02:19:22;118.57;;;27.40;;
4638;SDS011;2332;38.646;-9.154;2023-11-18T02:21:49;201.03;;;30.43;;
4638;SDS011;2332;38.646;-9.154;2023-11-18T02:24:28;151.63;;;29.87;;
4638;SDS011;2332;38.646;-9.154;2023-11-18T02:27:02;192.47;;;31.23;;
4638;SDS011;2332;38.646;-9.154;2023-11-18T02:29:32;193.27;;;28.70;;
4638;SDS011;2332;38.646;-9.154;2023-11-18T02:32:48;121.33;;;27.40;;
4638;SDS011;2332;38.646;-9.154;2023-11-18T02:37:42;158.03;;;29.93;;
4638;SDS011;2332;38.646;-9.154;2023-11-18T02:40:09;379.30;;;37.53;;
4638;SDS011;2332;38.646;-9.154;2023-11-18T02:42:39;156.23;;;30.80;;
4638;SDS011;2332;38.646;-9.154;2023-11-18T02:45:07;76.07;;;28.13;;
4638;SDS011;2332;38.646;-9.154;2023-11-18T02:47:33;183.47;;;32.03;;
4638;SDS011;2332;38.646;-9.154;2023-11-18T02:49:58;117.33;;;29.50;;
4638;SDS011;2332;38.646;-9.154;2023-11-18T02:52:30;159.40;;;31.07;;
4638;SDS011;2332;38.646;-9.154;2023-11-18T02:54:56;145.80;;;31.17;;
4638;SDS011;2332;38.646;-9.154;2023-11-18T02:57:21;181.70;;;33.70;;
4638;SDS011;2332;38.646;-9.154;2023-11-18T02:59:46;110.53;;;28.93;;
4638;SDS011;2332;38.646;-9.154;2023-11-18T03:02:12;102.40;;;30.50;;
4638;SDS011;2332;38.646;-9.154;2023-11-18T03:04:37;79.10;;;29.80;;
4638;SDS011;2332;38.646;-9.154;2023-11-18T03:07:03;214.27;;;32.50;;
4638;SDS011;2332;38.646;-9.154;2023-11-18T03:09:28;79.10;;;29.83;;
4638;SDS011;2332;38.646;-9.154;2023-11-18T03:11:54;210.30;;;32.70;;
4638;SDS011;2332;38.646;-9.154;2023-11-18T03:14:20;182.60;;;32.30;;
4638;SDS011;2332;38.646;-9.154;2023-11-18T03:16:45;190.83;;;32.53;;
4638;SDS011;2332;38.646;-9.154;2023-11-18T03:19:10;77.37;;;30.43;;
4638;SDS011;2332;38.646;-9.154;2023-11-18T03:21:36;186.67;;;31.43;;
4638;SDS011;2332;38.646;-9.154;2023-11-18T03:24:02;192.17;;;32.37;;
4638;SDS011;2332;38.646;-9.154;2023-11-18T03:26:27;163.53;;;28.93;;
4638;SDS011;2332;38.646;-9.154;2023-11-18T03:28:52;215.50;;;33.13;;
4638;SDS011;2332;38.646;-9.154;2023-11-18T03:31:18;117.87;;;28.80;;
4638;SDS011;2332;38.646;-9.154;2023-11-18T03:33:44;137.10;;;29.40;;
4638;SDS011;2332;38.646;-9.154;2023-11-18T03:36:10;79.03;;;28.37;;
4638;SDS011;2332;38.646;-9.154;2023-11-18T03:38:37;76.10;;;26.40;;
4638;SDS011;2332;38.646;-9.154;2023-11-18T03:41:02;100.67;;;28.10;;
4638;SDS011;2332;38.646;-9.154;2023-11-18T03:43:28;65.90;;;27.50;;
4638;SDS011;2332;38.646;-9.154;2023-11-18T03:45:53;62.53;;;25.60;;
4638;SDS011;2332;38.646;-9.154;2023-11-18T03:48:22;52.73;;;23.13;;
4638;SDS011;2332;38.646;-9.154;2023-11-18T03:50:47;51.77;;;24.80;;
4638;SDS011;2332;38.646;-9.154;2023-11-18T03:53:12;51.57;;;24.70;;
4638;SDS011;2332;38.646;-9.154;2023-11-18T03:55:38;49.57;;;23.37;;
4638;SDS011;2332;38.646;-9.154;2023-11-18T03:58:03;53.33;;;24.90;;
4638;SDS011;2332;38.646;-9.154;2023-11-18T04:00:28;58.70;;;26.20;;
4638;SDS011;2332;38.646;-9.154;2023-11-18T04:02:58;53.63;;;25.37;;
4638;SDS011;2332;38.646;-9.154;2023-11-18T04:05:23;62.60;;;25.33;;
4638;SDS011;2332;38.646;-9.154;2023-11-18T04:07:49;59.93;;;26.50;;
4638;SDS011;2332;38.646;-9.154;2023-11-18T04:10:14;45.63;;;24.40;;
4638;SDS011;2332;38.646;-9.154;2023-11-18T04:12:40;52.00;;;24.37;;
4638;SDS011;2332;38.646;-9.154;2023-11-18T04:15:05;49.73;;;22.17;;
4638;SDS011;2332;38.646;-9.154;2023-11-18T04:17:31;51.53;;;24.90;;
4638;SDS011;2332;38.646;-9.154;2023-11-18T04:19:57;50.73;;;25.17;;
4638;SDS011;2332;38.646;-9.154;2023-11-18T04:22:22;45.67;;;22.80;;
4638;SDS011;2332;38.646;-9.154;2023-11-18T04:24:48;47.07;;;24.30;;
4638;SDS011;2332;38.646;-9.154;2023-11-18T04:30:16;52.17;;;25.00;;
4638;SDS011;2332;38.646;-9.154;2023-11-18T04:32:42;51.33;;;24.00;;
4638;SDS011;2332;38.646;-9.154;2023-11-18T04:35:07;47.70;;;24.07;;
4638;SDS011;2332;38.646;-9.154;2023-11-18T04:37:34;49.37;;;23.30;;
4638;SDS011;2332;38.646;-9.154;2023-11-18T04:40:01;49.47;;;24.33;;
4638;SDS011;2332;38.646;-9.154;2023-11-18T04:42:26;48.17;;;23.60;;
4638;SDS011;2332;38.646;-9.154;2023-11-18T04:44:54;46.40;;;23.43;;
4638;SDS011;2332;38.646;-9.154;2023-11-18T04:47:20;41.40;;;22.23;;
4638;SDS011;2332;38.646;-9.154;2023-11-18T04:49:45;41.97;;;22.23;;
4638;SDS011;2332;38.646;-9.154;2023-11-18T04:52:11;40.73;;;23.10;;
4638;SDS011;2332;38.646;-9.154;2023-11-18T04:54:36;53.20;;;23.97;;
4638;SDS011;2332;38.646;-9.154;2023-11-18T04:57:01;51.17;;;24.53;;
4638;SDS011;2332;38.646;-9.154;2023-11-18T04:59:27;46.00;;;24.63;;
4638;SDS011;2332;38.646;-9.154;2023-11-18T05:01:53;43.47;;;22.50;;
4638;SDS011;2332;38.646;-9.154;2023-11-18T05:04:18;37.83;;;20.80;;
4638;SDS011;2332;38.646;-9.154;2023-11-18T05:06:43;40.93;;;21.43;;
4638;SDS011;2332;38.646;-9.154;2023-11-18T05:09:09;35.47;;;19.73;;
4638;SDS011;2332;38.646;-9.154;2023-11-18T05:11:35;33.77;;;19.07;;
4638;SDS011;2332;38.646;-9.154;2023-11-18T05:14:00;39.80;;;21.30;;
4638;SDS011;2332;38.646;-9.154;2023-11-18T05:16:28;38.37;;;19.87;;
4638;SDS011;2332;38.646;-9.154;2023-11-18T05:18:53;34.70;;;19.67;;
4638;SDS011;2332;38.646;-9.154;2023-11-18T05:21:19;39.83;;;20.27;;
4638;SDS011;2332;38.646;-9.154;2023-11-18T05:23:44;32.43;;;18.73;;
4638;SDS011;2332;38.646;-9.154;2023-11-18T05:26:09;32.43;;;18.00;;
4638;SDS011;2332;38.646;-9.154;2023-11-18T05:28:35;28.73;;;17.00;;
4638;SDS011;2332;38.646;-9.154;2023-11-18T05:31:00;27.20;;;17.10;;
4638;SDS011;2332;38.646;-9.154;2023-11-18T05:33:30;22.37;;;15.27;;
4638;SDS011;2332;38.646;-9.154;2023-11-18T05:35:56;25.13;;;15.93;;
4638;SDS011;2332;38.646;-9.154;2023-11-18T05:38:22;21.90;;;15.60;;
4638;SDS011;2332;38.646;-9.154;2023-11-18T05:40:48;24.93;;;16.03;;
4638;SDS011;2332;38.646;-9.154;2023-11-18T05:43:26;27.17;;;16.80;;
4638;SDS011;2332;38.646;-9.154;2023-11-18T05:45:54;26.53;;;16.30;;
4638;SDS011;2332;38.646;-9.154;2023-11-18T05:48:38;29.97;;;17.60;;
4638;SDS011;2332;38.646;-9.154;2023-11-18T05:51:03;29.40;;;17.10;;
4638;SDS011;2332;38.646;-9.154;2023-11-18T05:53:29;27.30;;;15.97;;
4638;SDS011;2332;38.646;-9.154;2023-11-18T05:55:55;25.00;;;16.20;;
4638;SDS011;2332;38.646;-9.154;2023-11-18T05:58:20;27.87;;;16.43;;
4638;SDS011;2332;38.646;-9.154;2023-11-18T06:00:46;23.37;;;16.00;;
4638;SDS011;2332;38.646;-9.154;2023-11-18T06:03:12;22.80;;;15.90;;
4638;SDS011;2332;38.646;-9.154;2023-11-18T06:05:37;21.33;;;16.07;;
4638;SDS011;2332;38.646;-9.154;2023-11-18T06:08:03;18.77;;;14.50;;
4638;SDS011;2332;38.646;-9.154;2023-11-18T06:10:29;22.20;;;16.67;;
4638;SDS011;2332;38.646;-9.154;2023-11-18T06:12:56;24.13;;;15.10;;
4638;SDS011;2332;38.646;-9.154;2023-11-18T06:15:23;19.67;;;15.10;;
4638;SDS011;2332;38.646;-9.154;2023-11-18T06:17:48;18.70;;;14.03;;
4638;SDS011;2332;38.646;-9.154;2023-11-18T06:20:13;19.07;;;15.00;;
4638;SDS011;2332;38.646;-9.154;2023-11-18T06:22:39;16.93;;;13.80;;
4638;SDS011;2332;38.646;-9.154;2023-11-18T06:25:05;17.90;;;14.30;;
4638;SDS011;2332;38.646;-9.154;2023-11-18T06:27:32;18.20;;;13.83;;
4638;SDS011;2332;38.646;-9.154;2023-11-18T06:29:58;19.90;;;13.80;;
4638;SDS011;2332;38.646;-9.154;2023-11-18T06:32:23;23.10;;;16.20;;
4638;SDS011;2332;38.646;-9.154;2023-11-18T06:34:51;20.07;;;15.30;;
4638;SDS011;2332;38.646;-9.154;2023-11-18T06:37:16;21.80;;;16.70;;
4638;SDS011;2332;38.646;-9.154;2023-11-18T06:39:42;21.63;;;15.53;;
4638;SDS011;2332;38.646;-9.154;2023-11-18T06:42:10;19.70;;;14.20;;
4638;SDS011;2332;38.646;-9.154;2023-11-18T06:44:37;20.97;;;14.90;;
4638;SDS011;2332;38.646;-9.154;2023-11-18T06:47:02;17.13;;;13.13;;
4638;SDS011;2332;38.646;-9.154;2023-11-18T06:49:30;16.83;;;13.60;;
4638;SDS011;2332;38.646;-9.154;2023-11-18T06:51:58;13.93;;;12.47;;
4638;SDS011;2332;38.646;-9.154;2023-11-18T06:54:24;14.30;;;12.80;;
4638;SDS011;2332;38.646;-9.154;2023-11-18T06:56:51;14.20;;;12.70;;
4638;SDS011;2332;38.646;-9.154;2023-11-18T06:59:17;13.77;;;11.90;;
4638;SDS011;2332;38.646;-9.154;2023-11-18T07:01:43;12.83;;;11.43;;
4638;SDS011;2332;38.646;-9.154;2023-11-18T07:04:09;13.57;;;11.87;;
4638;SDS011;2332;38.646;-9.154;2023-11-18T07:06:34;11.10;;;10.00;;
4638;SDS011;2332;38.646;-9.154;2023-11-18T07:09:03;12.27;;;11.07;;
4638;SDS011;2332;38.646;-9.154;2023-11-18T07:11:33;12.93;;;11.20;;
4638;SDS011;2332;38.646;-9.154;2023-11-18T07:13:59;12.43;;;10.13;;
4638;SDS011;2332;38.646;-9.154;2023-11-18T07:16:24;12.40;;;11.10;;
4638;SDS011;2332;38.646;-9.154;2023-11-18T07:18:50;11.90;;;10.37;;
4638;SDS011;2332;38.646;-9.154;2023-11-18T07:21:16;12.03;;;10.73;;
4638;SDS011;2332;38.646;-9.154;2023-11-18T07:23:42;19.53;;;11.50;;
4638;SDS011;2332;38.646;-9.154;2023-11-18T07:26:07;13.97;;;10.70;;
4638;SDS011;2332;38.646;-9.154;2023-11-18T07:28:35;18.63;;;10.23;;
4638;SDS011;2332;38.646;-9.154;2023-11-18T07:31:01;11.50;;;10.30;;
4638;SDS011;2332;38.646;-9.154;2023-11-18T07:33:30;9.90;;;8.80;;
4638;SDS011;2332;38.646;-9.154;2023-11-18T07:35:57;9.60;;;8.60;;
4638;SDS011;2332;38.646;-9.154;2023-11-18T07:38:22;9.90;;;8.90;;
4638;SDS011;2332;38.646;-9.154;2023-11-18T07:40:48;12.63;;;8.30;;
4638;SDS011;2332;38.646;-9.154;2023-11-18T07:43:17;12.93;;;7.67;;
4638;SDS011;2332;38.646;-9.154;2023-11-18T07:45:42;14.00;;;8.60;;
4638;SDS011;2332;38.646;-9.154;2023-11-18T07:48:08;10.63;;;7.10;;
4638;SDS011;2332;38.646;-9.154;2023-11-18T07:50:35;17.47;;;7.70;;
4638;SDS011;2332;38.646;-9.154;2023-11-18T07:53:00;7.97;;;7.17;;
4638;SDS011;2332;38.646;-9.154;2023-11-18T07:55:26;17.50;;;7.83;;
4638;SDS011;2332;38.646;-9.154;2023-11-18T07:57:51;18.93;;;7.53;;
4638;SDS011;2332;38.646;-9.154;2023-11-18T08:00:17;8.40;;;7.00;;
4638;SDS011;2332;38.646;-9.154;2023-11-18T08:02:42;16.27;;;7.27;;
4638;SDS011;2332;38.646;-9.154;2023-11-18T08:05:09;8.07;;;6.20;;
4638;SDS011;2332;38.646;-9.154;2023-11-18T08:07:39;7.60;;;6.17;;
4638;SDS011;2332;38.646;-9.154;2023-11-18T08:10:05;29.33;;;5.77;;
4638;SDS011;2332;38.646;-9.154;2023-11-18T08:12:33;14.10;;;6.20;;
4638;SDS011;2332;38.646;-9.154;2023-11-18T08:14:59;7.93;;;5.60;;
4638;SDS011;2332;38.646;-9.154;2023-11-18T08:17:25;9.40;;;5.87;;
4638;SDS011;2332;38.646;-9.154;2023-11-18T08:19:51;7.97;;;5.20;;
4638;SDS011;2332;38.646;-9.154;2023-11-18T08:22:17;6.73;;;6.13;;
4638;SDS011;2332;38.646;-9.154;2023-11-18T08:24:44;7.20;;;6.03;;
4638;SDS011;2332;38.646;-9.154;2023-11-18T08:27:09;12.53;;;5.80;;
4638;SDS011;2332;38.646;-9.154;2023-11-18T08:29:35;6.93;;;6.17;;
4638;SDS011;2332;38.646;-9.154;2023-11-18T08:32:00;6.80;;;5.60;;
4638;SDS011;2332;38.646;-9.154;2023-11-18T08:34:26;7.90;;;5.30;;
4638;SDS011;2332;38.646;-9.154;2023-11-18T08:36:52;5.93;;;5.40;;
4638;SDS011;2332;38.646;-9.154;2023-11-18T08:39:17;6.10;;;5.60;;
4638;SDS011;2332;38.646;-9.154;2023-11-18T08:41:50;7.23;;;5.97;;
4638;SDS011;2332;38.646;-9.154;2023-11-18T08:44:16;7.00;;;5.43;;
4638;SDS011;2332;38.646;-9.154;2023-11-18T08:46:43;5.60;;;4.97;;
4638;SDS011;2332;38.646;-9.154;2023-11-18T08:49:08;6.27;;;5.67;;
4638;SDS011;2332;38.646;-9.154;2023-11-18T08:51:42;9.77;;;6.10;;
4638;SDS011;2332;38.646;-9.154;2023-11-18T08:54:07;13.00;;;5.50;;
4638;SDS011;2332;38.646;-9.154;2023-11-18T08:56:50;15.57;;;5.30;;
4638;SDS011;2332;38.646;-9.154;2023-11-18T08:59:17;11.83;;;5.17;;
4638;SDS011;2332;38.646;-9.154;2023-11-18T09:01:43;6.93;;;5.83;;
4638;SDS011;2332;38.646;-9.154;2023-11-18T09:04:11;7.00;;;5.40;;
4638;SDS011;2332;38.646;-9.154;2023-11-18T09:06:37;5.20;;;4.80;;
4638;SDS011;2332;38.646;-9.154;2023-11-18T09:09:04;8.77;;;5.63;;
4638;SDS011;2332;38.646;-9.154;2023-11-18T09:11:35;6.80;;;6.20;;
4638;SDS011;2332;38.646;-9.154;2023-11-18T09:14:02;9.13;;;5.90;;
4638;SDS011;2332;38.646;-9.154;2023-11-18T09:16:29;5.57;;;5.03;;
4638;SDS011;2332;38.646;-9.154;2023-11-18T09:18:54;5.80;;;5.30;;
4638;SDS011;2332;38.646;-9.154;2023-11-18T09:21:20;6.00;;;5.20;;
4638;SDS011;2332;38.646;-9.154;2023-11-18T09:23:50;6.23;;;5.23;;
4638;SDS011;2332;38.646;-9.154;2023-11-18T09:26:15;5.70;;;5.20;;
4638;SDS011;2332;38.646;-9.154;2023-11-18T09:28:43;5.73;;;5.23;;
4638;SDS011;2332;38.646;-9.154;2023-11-18T09:31:11;6.13;;;5.60;;
4638;SDS011;2332;38.646;-9.154;2023-11-18T09:33:37;6.10;;;5.50;;
4638;SDS011;2332;38.646;-9.154;2023-11-18T09:36:07;5.90;;;5.50;;
4638;SDS011;2332;38.646;-9.154;2023-11-18T09:38:34;5.83;;;5.27;;
4638;SDS011;2332;38.646;-9.154;2023-11-18T09:41:04;5.43;;;4.93;;
4638;SDS011;2332;38.646;-9.154;2023-11-18T09:43:34;5.70;;;5.20;;
4638;SDS011;2332;38.646;-9.154;2023-11-18T09:46:24;6.40;;;5.90;;
4638;SDS011;2332;38.646;-9.154;2023-11-18T09:48:53;6.67;;;5.43;;
4638;SDS011;2332;38.646;-9.154;2023-11-18T09:51:22;5.70;;;5.27;;
4638;SDS011;2332;38.646;-9.154;2023-11-18T09:53:51;5.90;;;5.30;;
4638;SDS011;2332;38.646;-9.154;2023-11-18T09:56:31;9.13;;;6.27;;
4638;SDS011;2332;38.646;-9.154;2023-11-18T10:01:35;5.57;;;4.87;;
4638;SDS011;2332;38.646;-9.154;2023-11-18T10:04:04;5.87;;;5.37;;
4638;SDS011;2332;38.646;-9.154;2023-11-18T10:06:32;6.03;;;5.47;;
4638;SDS011;2332;38.646;-9.154;2023-11-18T10:08:59;6.70;;;5.10;;
4638;SDS011;2332;38.646;-9.154;2023-11-18T10:11:40;8.63;;;5.80;;
4638;SDS011;2332;38.646;-9.154;2023-11-18T10:14:06;9.90;;;6.57;;
4638;SDS011;2332;38.646;-9.154;2023-11-18T10:16:33;7.63;;;6.80;;
4638;SDS011;2332;38.646;-9.154;2023-11-18T10:18:59;6.90;;;6.27;;
4638;SDS011;2332;38.646;-9.154;2023-11-18T10:21:34;7.50;;;6.67;;
4638;SDS011;2332;38.646;-9.154;2023-11-18T10:24:04;7.67;;;6.87;;
4638;SDS011;2332;38.646;-9.154;2023-11-18T10:26:35;8.43;;;6.67;;
4638;SDS011;2332;38.646;-9.154;2023-11-18T10:29:03;7.17;;;6.47;;
4638;SDS011;2332;38.646;-9.154;2023-11-18T10:31:33;7.83;;;7.10;;
4638;SDS011;2332;38.646;-9.154;2023-11-18T10:34:00;6.83;;;6.17;;
4638;SDS011;2332;38.646;-9.154;2023-11-18T10:36:26;7.17;;;6.43;;
4638;SDS011;2332;38.646;-9.154;2023-11-18T10:38:54;7.73;;;6.90;;
4638;SDS011;2332;38.646;-9.154;2023-11-18T10:41:21;8.97;;;7.93;;
4638;SDS011;2332;38.646;-9.154;2023-11-18T10:43:46;9.30;;;8.30;;
4638;SDS011;2332;38.646;-9.154;2023-11-18T10:46:13;7.83;;;7.10;;
4638;SDS011;2332;38.646;-9.154;2023-11-18T10:48:46;7.03;;;6.40;;
4638;SDS011;2332;38.646;-9.154;2023-11-18T10:51:16;7.73;;;7.03;;
4638;SDS011;2332;38.646;-9.154;2023-11-18T10:53:42;8.40;;;7.37;;
4638;SDS011;2332;38.646;-9.154;2023-11-18T10:56:18;8.93;;;8.13;;
4638;SDS011;2332;38.646;-9.154;2023-11-18T10:58:45;8.90;;;8.00;;
4638;SDS011;2332;38.646;-9.154;2023-11-18T11:01:11;9.13;;;7.50;;
4638;SDS011;2332;38.646;-9.154;2023-11-18T11:06:35;9.20;;;6.77;;
4638;SDS011;2332;38.646;-9.154;2023-11-18T11:09:01;8.00;;;6.70;;
4638;SDS011;2332;38.646;-9.154;2023-11-18T11:11:48;7.60;;;6.60;;
4638;SDS011;2332;38.646;-9.154;2023-11-18T11:14:14;7.10;;;6.50;;
4638;SDS011;2332;38.646;-9.154;2023-11-18T11:16:42;6.60;;;6.00;;
4638;SDS011;2332;38.646;-9.154;2023-11-18T11:19:15;7.30;;;6.60;;
4638;SDS011;2332;38.646;-9.154;2023-11-18T11:21:52;7.13;;;6.47;;
4638;SDS011;2332;38.646;-9.154;2023-11-18T11:24:22;6.70;;;6.20;;
4638;SDS011;2332;38.646;-9.154;2023-11-18T11:27:15;7.57;;;6.77;;
4638;SDS011;2332;38.646;-9.154;2023-11-18T11:29:54;8.63;;;6.07;;
4638;SDS011;2332;38.646;-9.154;2023-11-18T11:32:26;6.53;;;6.00;;
4638;SDS011;2332;38.646;-9.154;2023-11-18T11:35:06;7.70;;;7.00;;
4638;SDS011;2332;38.646;-9.154;2023-11-18T11:37:33;6.60;;;6.10;;
4638;SDS011;2332;38.646;-9.154;2023-11-18T11:40:02;7.13;;;6.43;;
4638;SDS011;2332;38.646;-9.154;2023-11-18T11:42:34;6.57;;;6.03;;
4638;SDS011;2332;38.646;-9.154;2023-11-18T11:45:01;5.83;;;5.43;;
4638;SDS011;2332;38.646;-9.154;2023-11-18T11:47:27;6.90;;;6.30;;
4638;SDS011;2332;38.646;-9.154;2023-11-18T11:49:55;6.63;;;6.13;;
4638;SDS011;2332;38.646;-9.154;2023-11-18T11:52:32;7.27;;;6.00;;
4638;SDS011;2332;38.646;-9.154;2023-11-18T11:57:28;6.70;;;6.20;;
4638;SDS011;2332;38.646;-9.154;2023-11-18T12:02:21;6.80;;;6.20;;
4638;SDS011;2332;38.646;-9.154;2023-11-18T12:04:50;6.30;;;5.70;;
4638;SDS011;2332;38.646;-9.154;2023-11-18T12:07:19;8.60;;;6.03;;
4638;SDS011;2332;38.646;-9.154;2023-11-18T12:09:55;6.80;;;6.10;;
4638;SDS011;2332;38.646;-9.154;2023-11-18T12:12:23;6.00;;;5.50;;
4638;SDS011;2332;38.646;-9.154;2023-11-18T12:14:52;6.00;;;5.50;;
4638;SDS011;2332;38.646;-9.154;2023-11-18T12:17:17;5.87;;;5.37;;
4638;SDS011;2332;38.646;-9.154;2023-11-18T12:19:46;5.77;;;5.27;;
4638;SDS011;2332;38.646;-9.154;2023-11-18T12:22:21;6.03;;;5.53;;
4638;SDS011;2332;38.646;-9.154;2023-11-18T12:27:41;6.60;;;6.10;;
4638;SDS011;2332;38.646;-9.154;2023-11-18T12:35:26;5.73;;;5.23;;
4638;SDS011;2332;38.646;-9.154;2023-11-18T12:40:56;5.70;;;5.20;;
4638;SDS011;2332;38.646;-9.154;2023-11-18T12:48:50;5.17;;;4.83;;
4638;SDS011;2332;38.646;-9.154;2023-11-18T12:51:20;5.43;;;5.03;;
4638;SDS011;2332;38.646;-9.154;2023-11-18T12:53:49;6.13;;;5.53;;
4638;SDS011;2332;38.646;-9.154;2023-11-18T12:56:21;6.47;;;5.87;;
4638;SDS011;2332;38.646;-9.154;2023-11-18T12:58:48;5.60;;;5.10;;
4638;SDS011;2332;38.646;-9.154;2023-11-18T13:01:14;5.80;;;5.30;;
4638;SDS011;2332;38.646;-9.154;2023-11-18T13:03:41;5.80;;;5.40;;
4638;SDS011;2332;38.646;-9.154;2023-11-18T13:06:10;6.07;;;5.13;;
4638;SDS011;2332;38.646;-9.154;2023-11-18T13:08:39;5.27;;;4.87;;
4638;SDS011;2332;38.646;-9.154;2023-11-18T13:11:05;4.20;;;4.00;;
4638;SDS011;2332;38.646;-9.154;2023-11-18T13:13:33;5.57;;;5.17;;
4638;SDS011;2332;38.646;-9.154;2023-11-18T13:15:58;5.47;;;4.97;;
4638;SDS011;2332;38.646;-9.154;2023-11-18T13:18:24;5.20;;;4.90;;
4638;SDS011;2332;38.646;-9.154;2023-11-18T13:20:55;5.53;;;5.13;;
4638;SDS011;2332;38.646;-9.154;2023-11-18T13:23:24;6.07;;;5.57;;
4638;SDS011;2332;38.646;-9.154;2023-11-18T13:25:49;5.57;;;5.07;;
4638;SDS011;2332;38.646;-9.154;2023-11-18T13:28:15;10.03;;;5.83;;
4638;SDS011;2332;38.646;-9.154;2023-11-18T13:30:41;5.80;;;5.43;;
4638;SDS011;2332;38.646;-9.154;2023-11-18T13:33:07;5.73;;;4.63;;
4638;SDS011;2332;38.646;-9.154;2023-11-18T13:35:33;5.57;;;5.07;;
4638;SDS011;2332;38.646;-9.154;2023-11-18T13:37:59;5.83;;;5.33;;
4638;SDS011;2332;38.646;-9.154;2023-11-18T13:40:24;5.60;;;5.20;;
4638;SDS011;2332;38.646;-9.154;2023-11-18T13:43:00;4.93;;;4.60;;
4638;SDS011;2332;38.646;-9.154;2023-11-18T13:45:26;5.40;;;5.00;;
4638;SDS011;2332;38.646;-9.154;2023-11-18T13:47:55;5.13;;;4.73;;
4638;SDS011;2332;38.646;-9.154;2023-11-18T13:50:21;5.33;;;4.93;;
4638;SDS011;2332;38.646;-9.154;2023-11-18T13:52:47;6.63;;;4.90;;
4638;SDS011;2332;38.646;-9.154;2023-11-18T13:55:14;5.80;;;5.40;;
4638;SDS011;2332;38.646;-9.154;2023-11-18T13:57:42;5.13;;;4.83;;
4638;SDS011;2332;38.646;-9.154;2023-11-18T14:00:08;4.23;;;4.03;;
4638;SDS011;2332;38.646;-9.154;2023-11-18T14:02:40;5.10;;;4.70;;
4638;SDS011;2332;38.646;-9.154;2023-11-18T14:05:05;5.53;;;4.50;;
4638;SDS011;2332;38.646;-9.154;2023-11-18T14:07:39;7.00;;;5.20;;
4638;SDS011;2332;38.646;-9.154;2023-11-18T14:10:05;4.77;;;4.50;;
4638;SDS011;2332;38.646;-9.154;2023-11-18T14:12:33;4.53;;;4.23;;
4638;SDS011;2332;38.646;-9.154;2023-11-18T14:14:58;5.00;;;4.60;;
4638;SDS011;2332;38.646;-9.154;2023-11-18T14:17:24;4.60;;;4.30;;
4638;SDS011;2332;38.646;-9.154;2023-11-18T14:19:49;4.60;;;4.30;;
4638;SDS011;2332;38.646;-9.154;2023-11-18T14:22:15;4.70;;;4.40;;
4638;SDS011;2332;38.646;-9.154;2023-11-18T14:24:41;4.63;;;4.33;;
4638;SDS011;2332;38.646;-9.154;2023-11-18T14:27:06;4.13;;;3.93;;
4638;SDS011;2332;38.646;-9.154;2023-11-18T14:29:35;6.50;;;4.60;;
4638;SDS011;2332;38.646;-9.154;2023-11-18T14:32:01;5.67;;;5.27;;
4638;SDS011;2332;38.646;-9.154;2023-11-18T14:34:27;5.00;;;4.60;;
4638;SDS011;2332;38.646;-9.154;2023-11-18T14:36:52;4.50;;;4.20;;
4638;SDS011;2332;38.646;-9.154;2023-11-18T14:39:18;4.57;;;4.27;;
4638;SDS011;2332;38.646;-9.154;2023-11-18T14:41:47;4.67;;;4.27;;
4638;SDS011;2332;38.646;-9.154;2023-11-18T14:44:12;4.57;;;4.37;;
4638;SDS011;2332;38.646;-9.154;2023-11-18T14:46:38;4.50;;;4.20;;
4638;SDS011;2332;38.646;-9.154;2023-11-18T14:49:04;4.80;;;4.30;;
4638;SDS011;2332;38.646;-9.154;2023-11-18T14:51:31;4.67;;;4.10;;
4638;SDS011;2332;38.646;-9.154;2023-11-18T14:53:56;5.23;;;4.93;;
4638;SDS011;2332;38.646;-9.154;2023-11-18T14:56:21;4.60;;;4.30;;
4638;SDS011;2332;38.646;-9.154;2023-11-18T14:58:47;4.50;;;4.30;;
4638;SDS011;2332;38.646;-9.154;2023-11-18T15:01:14;4.60;;;4.30;;
4638;SDS011;2332;38.646;-9.154;2023-11-18T15:03:40;5.80;;;4.80;;
4638;SDS011;2332;38.646;-9.154;2023-11-18T15:06:06;5.03;;;4.73;;
4638;SDS011;2332;38.646;-9.154;2023-11-18T15:08:31;5.03;;;4.63;;
4638;SDS011;2332;38.646;-9.154;2023-11-18T15:10:57;5.47;;;4.97;;
4638;SDS011;2332;38.646;-9.154;2023-11-18T15:13:25;5.43;;;5.03;;
4638;SDS011;2332;38.646;-9.154;2023-11-18T15:15:51;5.30;;;4.90;;
4638;SDS011;2332;38.646;-9.154;2023-11-18T15:18:16;5.47;;;5.07;;